createdAt,value
2023-01-21T00:00:07.173Z,41.70
2023-01-21T00:02:34.729Z,43.60
2023-01-21T00:05:01.610Z,41.90
2023-01-21T00:07:28.384Z,44.20
2023-01-21T00:09:55.134Z,42.20
2023-01-21T00:12:22.261Z,41.30
2023-01-21T00:14:49.104Z,41.50
2023-01-21T00:17:15.903Z,43.10
2023-01-21T00:19:42.641Z,39.80
2023-01-21T00:22:09.537Z,33.90
2023-01-21T00:24:36.377Z,38.70
2023-01-21T00:27:03.141Z,40.20
2023-01-21T00:29:29.960Z,40.60
2023-01-21T00:31:56.728Z,45.70
2023-01-21T00:34:23.544Z,43.50
2023-01-21T00:36:50.383Z,45.90
2023-01-21T00:39:17.141Z,42.40
2023-01-21T00:41:43.981Z,41.90
2023-01-21T00:44:10.832Z,45.80
2023-01-21T00:46:37.681Z,40.90
2023-01-21T00:49:04.623Z,39.00
2023-01-21T00:51:31.458Z,45.10
2023-01-21T00:53:58.282Z,39.90
2023-01-21T00:56:25.054Z,43.30
2023-01-21T00:58:51.970Z,41.60
2023-01-21T01:01:20.384Z,39.80
2023-01-21T01:03:47.924Z,44.00
2023-01-21T01:06:22.529Z,39.50
2023-01-21T01:08:50.426Z,43.10
2023-01-21T01:11:17.440Z,32.30
2023-01-21T01:13:44.526Z,43.40
2023-01-21T01:16:12.951Z,41.80
2023-01-21T01:18:40.358Z,44.20
2023-01-21T01:21:10.623Z,40.50
2023-01-21T01:23:37.486Z,39.00
2023-01-21T01:26:05.795Z,48.60
2023-01-21T01:28:32.800Z,41.60
2023-01-21T01:30:59.961Z,43.40
2023-01-21T01:33:27.334Z,47.40
2023-01-21T01:35:54.175Z,42.40
2023-01-21T01:38:21.859Z,40.50
2023-01-21T01:40:49.741Z,41.30
2023-01-21T01:43:21.151Z,41.20
2023-01-21T01:45:48.133Z,41.70
2023-01-21T01:48:18.628Z,42.90
2023-01-21T01:50:45.518Z,40.50
2023-01-21T01:53:12.263Z,40.70
2023-01-21T01:55:39.087Z,38.10
2023-01-21T01:58:08.151Z,35.70
2023-01-21T02:00:35.193Z,38.10
2023-01-21T02:03:20.775Z,33.90
2023-01-21T02:05:47.588Z,35.40
2023-01-21T02:08:14.379Z,36.30
2023-01-21T02:10:41.150Z,34.60
2023-01-21T02:13:07.921Z,35.50
2023-01-21T02:15:45.959Z,34.50
2023-01-21T02:18:16.673Z,35.40
2023-01-21T02:21:03.466Z,34.40
2023-01-21T02:24:08.863Z,32.80
2023-01-21T02:26:44.566Z,34.10
2023-01-21T02:29:31.824Z,34.50
2023-01-21T02:32:09.619Z,32.40
2023-01-21T02:34:45.625Z,32.40
2023-01-21T02:37:15.130Z,32.10
2023-01-21T02:39:49.174Z,33.60
2023-01-21T02:42:42.872Z,34.60
2023-01-21T02:45:15.672Z,34.60
2023-01-21T02:47:55.901Z,22.60
2023-01-21T02:50:27.284Z,33.00
2023-01-21T02:52:55.753Z,34.50
2023-01-21T02:55:22.611Z,25.90
2023-01-21T02:57:50.940Z,34.30
2023-01-21T03:00:31.878Z,33.40
2023-01-21T03:03:23.010Z,33.60
2023-01-21T03:08:42.195Z,31.60
2023-01-21T03:11:17.041Z,30.80
2023-01-21T03:14:17.309Z,31.00
2023-01-21T03:16:59.930Z,30.50
2023-01-21T03:19:42.753Z,31.30
2023-01-21T03:22:16.114Z,31.60
2023-01-21T03:24:44.012Z,30.90
2023-01-21T03:27:12.136Z,31.30
2023-01-21T03:29:39.183Z,28.30
2023-01-21T03:32:06.423Z,29.70
2023-01-21T03:34:34.626Z,29.50
2023-01-21T03:37:05.031Z,30.90
2023-01-21T03:40:01.139Z,27.10
2023-01-21T03:42:27.999Z,27.40
2023-01-21T03:44:55.004Z,29.20
2023-01-21T03:47:29.589Z,30.10
2023-01-21T03:50:00.950Z,27.40
2023-01-21T03:52:27.866Z,29.50
2023-01-21T03:54:54.673Z,30.00
2023-01-21T03:57:21.440Z,28.10
2023-01-21T03:59:48.600Z,27.80
2023-01-21T04:02:20.368Z,27.20
2023-01-21T04:04:47.546Z,27.10
2023-01-21T04:07:15.288Z,27.10
2023-01-21T04:09:42.241Z,21.70
2023-01-21T04:12:09.231Z,27.50
2023-01-21T04:14:36.037Z,27.80
2023-01-21T04:17:02.850Z,27.30
2023-01-21T04:19:29.669Z,24.90
2023-01-21T04:21:56.496Z,26.40
2023-01-21T04:24:23.277Z,27.50
2023-01-21T04:26:50.021Z,24.40
2023-01-21T04:29:17.513Z,25.80
2023-01-21T04:31:44.572Z,27.50
2023-01-21T04:34:11.374Z,24.70
2023-01-21T04:36:38.134Z,25.30
2023-01-21T04:39:05.154Z,25.80
2023-01-21T04:41:31.991Z,25.60
2023-01-21T04:43:58.835Z,27.60
2023-01-21T04:46:25.617Z,26.40
2023-01-21T04:48:55.355Z,26.40
2023-01-21T04:51:22.174Z,24.20
2023-01-21T04:53:49.024Z,26.60
2023-01-21T04:56:15.795Z,26.80
2023-01-21T04:58:42.510Z,24.30
2023-01-21T05:01:09.247Z,26.40
2023-01-21T05:03:36.081Z,24.20
2023-01-21T05:06:02.939Z,24.60
2023-01-21T05:08:30.538Z,25.90
2023-01-21T05:10:57.383Z,25.50
2023-01-21T05:13:24.353Z,25.20
2023-01-21T05:15:51.395Z,22.60
2023-01-21T05:18:18.218Z,24.10
2023-01-21T05:20:44.937Z,23.50
2023-01-21T05:23:11.804Z,23.90
2023-01-21T05:25:38.571Z,26.30
2023-01-21T05:28:05.390Z,25.50
2023-01-21T05:30:32.126Z,25.00
2023-01-21T05:32:58.973Z,25.30
2023-01-21T05:35:25.818Z,25.10
2023-01-21T05:37:52.577Z,25.80
2023-01-21T05:40:19.708Z,23.30
2023-01-21T05:42:47.169Z,24.80
2023-01-21T05:45:14.208Z,25.30
2023-01-21T05:47:41.149Z,25.30
2023-01-21T05:50:09.272Z,24.20
2023-01-21T05:52:36.081Z,25.20
2023-01-21T05:55:03.257Z,25.60
2023-01-21T05:57:30.743Z,25.10
2023-01-21T05:59:57.892Z,24.40
2023-01-21T06:02:25.004Z,23.90
2023-01-21T06:04:51.911Z,23.90
2023-01-21T06:07:18.688Z,22.40
2023-01-21T06:09:45.450Z,23.20
2023-01-21T06:12:12.239Z,23.30
2023-01-21T06:14:39.121Z,25.20
2023-01-21T06:17:05.962Z,24.40
2023-01-21T06:19:32.775Z,23.70
2023-01-21T06:21:59.612Z,24.90
2023-01-21T06:24:26.421Z,24.20
2023-01-21T06:26:53.619Z,24.50
2023-01-21T06:29:20.370Z,23.90
2023-01-21T06:31:47.301Z,23.00
2023-01-21T06:34:14.251Z,22.60
2023-01-21T06:36:42.798Z,22.10
2023-01-21T06:39:10.946Z,23.10
2023-01-21T06:41:38.029Z,24.20
2023-01-21T06:44:05.063Z,25.30
2023-01-21T06:46:32.065Z,25.60
2023-01-21T06:48:59.078Z,26.40
2023-01-21T06:51:25.889Z,23.60
2023-01-21T06:53:52.796Z,24.00
2023-01-21T06:56:19.814Z,25.80
2023-01-21T06:58:46.642Z,24.50
2023-01-21T07:01:13.444Z,22.40
2023-01-21T07:03:40.276Z,25.70
2023-01-21T07:06:07.141Z,25.30
2023-01-21T07:08:34.268Z,24.00
2023-01-21T07:24:21.831Z,24.40
2023-01-21T07:26:48.623Z,23.50
2023-01-21T07:29:15.419Z,23.70
2023-01-21T07:31:42.223Z,23.90
2023-01-21T07:34:10.071Z,24.00
2023-01-21T07:36:36.856Z,24.70
2023-01-21T07:39:03.615Z,23.70
2023-01-21T07:41:30.395Z,24.60
2023-01-21T07:43:57.165Z,19.00
2023-01-21T07:46:24.165Z,25.00
2023-01-21T07:48:51.945Z,24.30
2023-01-21T07:51:19.552Z,21.00
2023-01-21T07:53:46.510Z,21.20
2023-01-21T07:56:13.366Z,23.50
2023-01-21T07:58:40.197Z,21.30
2023-01-21T08:01:10.354Z,22.20
2023-01-21T08:03:37.686Z,21.60
2023-01-21T08:06:07.466Z,23.90
2023-01-21T08:08:34.412Z,22.30
2023-01-21T08:11:01.197Z,24.70
2023-01-21T08:13:28.114Z,20.80
2023-01-21T08:15:56.186Z,23.00
2023-01-21T08:18:23.379Z,23.80
2023-01-21T08:20:58.073Z,23.90
2023-01-21T08:23:26.050Z,23.20
2023-01-21T08:25:53.083Z,22.60
2023-01-21T08:28:19.942Z,23.60
2023-01-21T08:30:46.761Z,22.70
2023-01-21T08:33:13.925Z,22.30
2023-01-21T08:35:40.681Z,24.70
2023-01-21T08:38:07.523Z,23.50
2023-01-21T08:40:34.565Z,23.60
2023-01-21T08:43:02.662Z,24.30
2023-01-21T08:45:29.688Z,22.30
2023-01-21T08:47:57.106Z,22.70
2023-01-21T08:50:24.082Z,23.20
2023-01-21T08:52:52.274Z,25.40
2023-01-21T08:55:19.404Z,24.60
2023-01-21T08:57:46.232Z,25.40
2023-01-21T09:00:14.432Z,23.60
2023-01-21T09:02:41.228Z,24.80
2023-01-21T09:05:08.499Z,26.90
2023-01-21T09:07:35.319Z,25.60
2023-01-21T09:10:05.987Z,25.70
2023-01-21T09:12:32.963Z,21.10
2023-01-21T09:14:59.999Z,22.90
2023-01-21T09:17:27.052Z,25.70
2023-01-21T09:19:55.471Z,22.90
2023-01-21T09:22:22.443Z,19.80
2023-01-21T09:24:49.227Z,22.90
2023-01-21T09:27:16.142Z,23.70
2023-01-21T09:29:43.073Z,23.70
2023-01-21T09:32:10.026Z,21.40
2023-01-21T09:34:36.819Z,24.30
2023-01-21T09:37:05.172Z,24.30
2023-01-21T09:39:31.922Z,23.60
2023-01-21T09:41:58.752Z,25.70
2023-01-21T09:44:35.181Z,25.70
2023-01-21T09:47:26.411Z,25.80
2023-01-21T09:49:59.153Z,26.40
2023-01-21T14:11:35.375Z,25.00
2023-01-21T14:14:17.592Z,25.60
2023-01-21T14:16:50.707Z,25.30
2023-01-21T14:19:42.034Z,24.50
2023-01-21T14:22:36.933Z,25.30
2023-01-21T14:25:46.593Z,24.70
2023-01-21T14:28:16.662Z,23.90
2023-01-21T14:30:46.456Z,21.00
2023-01-21T14:33:17.358Z,26.10
2023-01-21T14:36:10.052Z,25.40
2023-01-21T14:38:56.166Z,24.80
2023-01-21T14:41:22.946Z,24.70
2023-01-21T14:43:51.724Z,20.80
2023-01-21T14:46:34.022Z,24.70
2023-01-21T14:49:08.377Z,25.30
2023-01-21T14:51:42.882Z,24.90
2023-01-21T14:54:15.988Z,24.80
2023-01-21T14:56:56.873Z,26.20
2023-01-21T14:59:37.967Z,24.70
2023-01-21T15:02:28.641Z,25.50
2023-01-21T15:05:00.219Z,27.60
2023-01-21T15:07:34.335Z,23.20
2023-01-21T15:10:03.068Z,28.30
2023-01-21T15:12:31.401Z,25.90
2023-01-21T15:15:03.258Z,23.00
2023-01-21T15:18:09.323Z,22.50
2023-01-21T15:20:42.268Z,19.60
2023-01-21T15:23:27.227Z,23.00
2023-01-21T15:26:11.255Z,22.90
2023-01-21T15:28:40.001Z,22.10
2023-01-21T15:31:09.114Z,22.00
2023-01-21T15:33:38.539Z,22.90
2023-01-21T15:36:05.635Z,20.40
2023-01-21T15:38:32.384Z,21.60
2023-01-21T15:41:06.812Z,20.90
2023-01-21T15:44:06.021Z,23.20
2023-01-21T15:46:46.585Z,25.50
2023-01-21T15:49:31.854Z,23.20
2023-01-21T15:52:21.428Z,106.30
2023-01-21T15:55:06.085Z,52.10
2023-01-21T15:57:32.829Z,74.10
2023-01-21T16:00:27.734Z,29.20
2023-01-21T16:03:03.018Z,31.50
2023-01-21T16:06:07.468Z,22.50
2023-01-21T16:08:55.805Z,69.80
2023-01-21T16:11:30.098Z,23.20
2023-01-21T16:14:13.840Z,26.00
2023-01-21T16:17:03.393Z,38.30
2023-01-21T16:19:32.912Z,24.30
2023-01-21T16:22:01.318Z,33.00
2023-01-21T16:24:29.183Z,27.20
2023-01-21T16:26:56.171Z,21.10
2023-01-21T16:29:22.975Z,23.90
2023-01-21T16:31:50.803Z,25.10
2023-01-21T16:34:39.562Z,24.90
2023-01-21T16:37:06.797Z,22.60
2023-01-21T16:39:33.635Z,26.30
2023-01-21T16:42:02.247Z,24.20
2023-01-21T16:44:29.259Z,24.50
2023-01-21T16:46:56.232Z,24.90
2023-01-21T16:49:23.050Z,27.10
2023-01-21T16:51:56.478Z,24.60
2023-01-21T16:54:24.843Z,22.60
2023-01-21T16:56:55.162Z,21.70
2023-01-21T16:59:25.453Z,24.70
2023-01-21T17:01:52.289Z,24.50
2023-01-21T17:04:19.194Z,26.00
2023-01-21T17:06:46.067Z,25.60
2023-01-21T17:09:25.804Z,22.50
2023-01-21T17:11:52.695Z,26.00
2023-01-21T17:14:25.307Z,24.70
2023-01-21T17:16:52.154Z,23.50
2023-01-21T17:19:24.209Z,23.40
2023-01-21T17:21:55.462Z,24.80
2023-01-21T17:24:33.277Z,25.50
2023-01-21T17:27:10.389Z,27.30
2023-01-21T17:29:37.310Z,22.90
2023-01-21T17:32:05.749Z,23.10
2023-01-21T17:34:34.157Z,23.90
2023-01-21T17:37:01.008Z,25.70
2023-01-21T17:39:46.455Z,23.40
2023-01-21T17:42:23.930Z,25.70
2023-01-21T17:44:53.362Z,24.30
2023-01-21T17:47:32.353Z,24.90
2023-01-21T17:50:03.091Z,23.20
2023-01-21T17:52:30.040Z,25.30
2023-01-21T17:55:25.988Z,23.90
2023-01-21T21:41:52.574Z,39.80
2023-01-21T21:44:19.324Z,35.80
2023-01-21T21:47:04.547Z,40.50
2023-01-21T21:49:32.707Z,37.60
2023-01-21T21:52:00.506Z,39.90
2023-01-21T21:54:27.560Z,41.60
2023-01-21T21:56:54.226Z,39.20
2023-01-21T21:59:20.925Z,40.50
2023-01-21T22:01:50.995Z,38.00
2023-01-21T22:04:17.954Z,35.30
2023-01-21T22:06:44.498Z,47.30
2023-01-21T22:09:11.349Z,42.30
2023-01-21T22:11:37.996Z,41.00
2023-01-21T22:14:04.938Z,38.20
2023-01-21T22:16:31.917Z,42.30
2023-01-21T22:18:59.531Z,40.10
2023-01-21T22:21:28.218Z,37.90
2023-01-21T22:23:56.056Z,34.60
2023-01-21T22:26:23.823Z,41.00
2023-01-21T22:28:53.358Z,39.20
2023-01-21T22:31:24.862Z,40.80
2023-01-21T22:33:51.719Z,40.80
2023-01-21T22:36:19.896Z,38.40
2023-01-21T22:38:46.595Z,42.40
2023-01-21T22:41:14.166Z,38.60
2023-01-21T22:43:43.997Z,37.80
2023-01-21T22:46:12.301Z,38.30
2023-01-21T22:48:39.043Z,40.50
2023-01-21T22:51:05.863Z,36.30
2023-01-21T22:53:32.650Z,38.10
2023-01-21T22:56:00.967Z,46.90
2023-01-21T22:58:28.515Z,33.20
2023-01-21T23:00:55.451Z,39.30
2023-01-21T23:03:22.316Z,31.30
2023-01-21T23:05:49.248Z,35.50
2023-01-21T23:08:16.246Z,46.70
2023-01-21T23:10:43.425Z,37.20
2023-01-21T23:13:11.153Z,35.60
2023-01-21T23:15:45.627Z,32.90
2023-01-21T23:18:13.211Z,34.70
2023-01-21T23:20:41.395Z,36.70
2023-01-21T23:23:09.393Z,34.30
2023-01-21T23:25:45.698Z,39.20
2023-01-21T23:28:13.257Z,37.50
2023-01-21T23:30:40.257Z,35.40
2023-01-21T23:33:06.926Z,35.50
2023-01-21T23:35:34.808Z,33.00
2023-01-21T23:38:01.918Z,33.30
2023-01-21T23:40:28.991Z,35.60
2023-01-21T23:42:55.578Z,39.10
2023-01-21T23:45:22.504Z,35.00
2023-01-21T23:47:49.337Z,33.30
2023-01-21T23:50:16.308Z,32.00
2023-01-21T23:52:43.243Z,37.40
2023-01-21T23:55:09.934Z,35.20
2023-01-21T23:57:36.929Z,35.90
